Time;durP1;ratioP1;P1;durP2;ratioP2;P2;SDS_P1;SDS_P2;PMS_P1;PMS_P2;Temp;Humidity;BMP_temperature;BMP_pressure;BME280_temperature;BME280_humidity;BME280_pressure;Samples;Min_cycle;Max_cycle;Signal;HPM_P1;HPM_P2
2023/02/27 00:00:13;;;;;;;13.75;7.85;;;;;;;-2.07;78.34;99688.50;4950337;28;20050;-76
2023/02/27 00:02:44;;;;;;;15.85;7.80;;;;;;;-1.99;78.78;99697.09;4936532;29;20503;-76
2023/02/27 00:05:10;;;;;;;16.08;7.47;;;;;;;-1.95;78.89;99693.50;4954385;28;20099;-76
2023/02/27 00:07:37;;;;;;;21.25;9.38;;;;;;;-1.95;79.19;99690.88;4953969;28;20061;-76
2023/02/27 00:10:04;;;;;;;18.38;9.85;;;;;;;-1.96;79.30;99670.78;4938361;29;20054;-76
2023/02/27 00:12:36;;;;;;;17.88;8.48;;;;;;;-1.91;79.81;99673.31;4939531;28;20115;-76
2023/02/27 00:15:12;;;;;;;15.52;8.52;;;;;;;-1.96;80.01;99655.97;4953946;28;20039;-78
2023/02/27 00:17:38;;;;;;;26.25;10.48;;;;;;;-1.92;80.25;99659.34;4938059;28;20044;-77
2023/02/27 00:20:06;;;;;;;18.58;9.52;;;;;;;-1.88;80.24;99653.16;4937822;29;20047;-76
2023/02/27 00:22:32;;;;;;;21.40;9.48;;;;;;;-1.83;80.38;99635.56;4954055;29;20106;-76
2023/02/27 00:24:57;;;;;;;21.13;10.50;;;;;;;-1.88;80.41;99628.69;4939289;29;20043;-76
2023/02/27 00:27:23;;;;;;;14.88;8.63;;;;;;;-1.92;80.69;99630.53;4937987;29;20490;-75
2023/02/27 00:29:49;;;;;;;17.55;9.05;;;;;;;-1.85;80.86;99633.84;4937980;29;20134;-76
2023/02/27 00:32:15;;;;;;;15.50;7.45;;;;;;;-1.93;80.75;99623.56;4937813;29;20479;-76
2023/02/27 00:34:41;;;;;;;15.18;8.95;;;;;;;-1.93;81.24;99612.22;4922524;29;20035;-75
2023/02/27 00:37:09;;;;;;;17.15;8.95;;;;;;;-1.95;81.06;99614.91;4937809;29;20491;-76
2023/02/27 00:39:35;;;;;;;20.45;9.07;;;;;;;-1.93;81.16;99609.63;4937902;29;20058;-75
2023/02/27 00:42:01;;;;;;;17.27;9.30;;;;;;;-1.86;81.47;99619.91;4921920;29;20047;-74
2023/02/27 00:44:27;;;;;;;17.88;8.70;;;;;;;-1.78;81.38;99623.19;4937710;29;20060;-76
2023/02/27 00:46:52;;;;;;;14.93;7.53;;;;;;;-1.85;81.28;99623.38;4937713;29;20056;-76
2023/02/27 00:49:19;;;;;;;14.77;7.95;;;;;;;-1.71;81.35;99634.38;4937768;29;20411;-76
2023/02/27 00:51:45;;;;;;;20.02;8.70;;;;;;;-1.86;81.60;99625.13;4937788;29;20511;-76
2023/02/27 00:54:11;;;;;;;19.13;8.27;;;;;;;-1.74;81.74;99627.44;4938506;29;20066;-76
2023/02/27 00:56:37;;;;;;;15.38;7.68;;;;;;;-1.69;81.45;99626.47;4937735;29;20075;-75
2023/02/27 00:59:03;;;;;;;20.58;9.20;;;;;;;-1.69;81.88;99631.69;4938732;29;20043;-76
2023/02/27 01:01:29;;;;;;;13.63;7.57;;;;;;;-1.67;81.75;99635.16;4937373;28;20499;-76
2023/02/27 01:03:56;;;;;;;16.63;8.20;;;;;;;-1.63;81.45;99626.31;4921567;29;20130;-76
2023/02/27 01:06:22;;;;;;;19.92;8.75;;;;;;;-1.76;81.52;99616.16;4937317;29;20134;-76
2023/02/27 01:08:47;;;;;;;13.52;7.68;;;;;;;-1.66;81.76;99626.38;4953184;29;20040;-75
2023/02/27 01:11:13;;;;;;;13.10;8.00;;;;;;;-1.60;81.67;99618.38;4937450;29;20098;-76
2023/02/27 01:13:39;;;;;;;22.27;9.35;;;;;;;-1.70;81.66;99604.63;4951722;28;20056;-75
2023/02/27 01:16:07;;;;;;;14.48;9.00;;;;;;;-1.63;81.74;99595.72;4921460;29;20388;-77
2023/02/27 01:18:33;;;;;;;15.00;8.48;;;;;;;-1.60;81.61;99595.63;4953036;29;20075;-74
2023/02/27 01:20:59;;;;;;;19.45;8.48;;;;;;;-1.62;81.85;99591.34;4937147;29;20578;-76
2023/02/27 01:23:25;;;;;;;18.42;8.35;;;;;;;-1.62;82.14;99586.94;4937064;29;20130;-75
2023/02/27 01:25:51;;;;;;;20.02;9.38;;;;;;;-1.59;82.28;99575.53;4937241;29;20079;-77
2023/02/27 01:28:16;;;;;;;20.33;9.70;;;;;;;-1.64;82.62;99577.41;4936942;29;20074;-75
2023/02/27 01:30:43;;;;;;;20.23;7.10;;;;;;;-1.57;82.69;99579.84;4936821;29;20047;-75
2023/02/27 01:33:12;;;;;;;17.88;8.95;;;;;;;-1.52;82.12;99571.84;4937923;29;20044;-78
2023/02/27 01:35:39;;;;;;;21.83;10.23;;;;;;;-1.47;82.09;99581.31;4937006;29;20510;-77
2023/02/27 01:38:05;;;;;;;19.35;9.82;;;;;;;-1.42;82.03;99583.81;4936873;29;20054;-76
2023/02/27 01:40:39;;;;;;;20.13;10.02;;;;;;;-1.51;82.45;99568.31;4937934;29;20563;-75
2023/02/27 01:43:13;;;;;;;19.80;9.23;;;;;;;-1.32;81.86;99580.00;4936749;29;20079;-79
2023/02/27 01:45:41;;;;;;;20.00;10.73;;;;;;;-1.33;81.84;99580.91;4920886;29;20043;-76
2023/02/27 01:48:28;;;;;;;19.85;10.60;;;;;;;-1.33;81.81;99565.19;4937754;29;20103;-77
2023/02/27 01:51:08;;;;;;;17.58;10.23;;;;;;;-1.25;81.62;99581.56;4920753;29;20580;-76
2023/02/27 01:53:36;;;;;;;;;;;;;;;-1.27;81.45;99567.66;4937849;29;20138;-75
2023/02/27 01:56:15;;;;;;;13.93;7.82;;;;;;;-1.40;81.56;99566.25;4920934;29;19933;-76
2023/02/27 01:58:43;;;;;;;15.98;7.53;;;;;;;-1.33;81.54;99569.56;4936404;29;20047;-77
2023/02/27 02:01:08;;;;;;;19.23;9.40;;;;;;;-1.39;81.97;99547.03;4936386;29;20126;-77
2023/02/27 02:03:42;;;;;;;17.05;9.70;;;;;;;-1.31;81.86;99549.44;4920640;29;20078;-77
2023/02/27 02:06:09;;;;;;;17.98;9.32;;;;;;;-1.28;81.47;99534.47;4920434;29;20051;-75
2023/02/27 02:08:41;;;;;;;19.40;10.07;;;;;;;-1.26;81.41;99539.66;4937606;29;20099;-76
2023/02/27 02:11:08;;;;;;;20.52;10.60;;;;;;;-1.26;81.63;99537.88;4936422;29;20035;-77
2023/02/27 02:13:35;;;;;;;20.05;10.32;;;;;;;-1.22;81.38;99525.53;4936058;29;20066;-76
2023/02/27 02:16:30;;;;;;;23.55;11.52;;;;;;;-1.18;81.23;99542.91;4936097;29;20058;-77
2023/02/27 02:19:18;;;;;;;18.42;10.43;;;;;;;-1.22;81.08;99508.03;4920291;29;20075;-76
2023/02/27 02:22:21;;;;;;;24.00;9.73;;;;;;;-1.23;81.66;99506.31;4936249;29;20055;-77
2023/02/27 02:25:08;;;;;;;28.35;13.63;;;;;;;-1.14;81.53;99520.94;4935489;29;20418;-75
2023/02/27 02:27:35;;;;;;;25.25;11.65;;;;;;;-1.21;81.77;99503.66;4936313;29;20046;-75
2023/02/27 02:30:37;;;;;;;30.23;11.10;;;;;;;-1.18;81.95;99507.94;4920494;29;20134;-76
2023/02/27 02:33:21;;;;;;;27.20;11.07;;;;;;;-1.06;81.65;99512.81;4936998;29;20042;-76
2023/02/27 02:36:16;;;;;;;16.42;9.02;;;;;;;-1.03;81.76;99500.47;4936030;29;20052;-75
2023/02/27 02:39:04;;;;;;;21.85;9.27;;;;;;;-1.08;81.16;99494.53;4919609;29;20058;-76
2023/02/27 02:41:48;;;;;;;11.20;6.60;;;;;;;-1.08;81.58;99483.16;4919578;29;20052;-76
2023/02/27 02:44:38;;;;;;;15.20;9.25;;;;;;;-1.01;81.15;99489.94;4935581;29;20044;-75
2023/02/27 02:47:15;;;;;;;19.88;9.75;;;;;;;-1.01;81.09;99482.94;4919413;29;20039;-78
2023/02/27 02:49:56;;;;;;;16.98;9.07;;;;;;;-1.08;81.53;99491.91;4951076;29;20522;-76
2023/02/27 02:52:32;;;;;;;16.50;8.25;;;;;;;-1.08;80.91;99477.94;4935344;29;20216;-76
2023/02/27 02:55:09;;;;;;;23.17;7.80;;;;;;;-1.05;81.19;99488.34;4936440;29;20068;-75
2023/02/27 02:58:11;;;;;;;20.55;9.55;;;;;;;-1.09;81.92;99477.06;4935128;29;20396;-75
2023/02/27 03:00:59;;;;;;;18.95;8.90;;;;;;;-1.15;81.64;99481.63;4919795;29;20107;-75
2023/02/27 03:03:33;;;;;;;22.17;9.02;;;;;;;-1.18;82.10;99481.72;4919371;29;20495;-77
2023/02/27 03:06:05;;;;;;;16.85;9.00;;;;;;;-1.15;82.62;99479.00;4934982;29;20047;-77
2023/02/27 03:08:39;;;;;;;15.80;9.20;;;;;;;-1.08;82.57;99494.53;4936225;29;20474;-76
2023/02/27 03:11:06;;;;;;;12.05;7.40;;;;;;;-1.04;82.72;99484.78;4935309;29;20047;-75
2023/02/27 03:13:50;;;;;;;22.20;9.25;;;;;;;-1.05;82.64;99459.47;4934779;29;20087;-76
2023/02/27 03:16:40;;;;;;;21.10;9.40;;;;;;;-0.99;82.50;99461.88;4919165;29;20158;-76
2023/02/27 03:19:24;;;;;;;15.40;9.35;;;;;;;-0.84;82.95;99471.91;4950058;29;20051;-75
2023/02/27 03:22:08;;;;;;;15.65;8.23;;;;;;;-0.77;82.90;99462.94;4934723;29;20502;-76
2023/02/27 03:24:44;;;;;;;19.70;9.40;;;;;;;-0.58;83.53;99471.06;4934922;29;20126;-76
2023/02/27 03:27:11;;;;;;;18.23;8.73;;;;;;;-0.51;82.79;99458.59;4934592;28;20055;-77
2023/02/27 03:29:51;;;;;;;22.63;8.32;;;;;;;-0.50;82.26;99458.53;4950655;29;20094;-76
2023/02/27 03:32:49;;;;;;;15.48;7.97;;;;;;;-0.44;82.53;99473.25;4935056;29;20043;-76
2023/02/27 03:35:15;;;;;;;15.38;7.82;;;;;;;-0.43;83.13;99456.56;4934671;28;20414;-76
2023/02/27 03:37:47;;;;;;;12.07;7.30;;;;;;;-0.33;83.30;99473.75;4923252;29;20075;-76
2023/02/27 03:40:41;;;;;;;17.83;7.60;;;;;;;-0.32;82.72;99449.19;4950728;28;20059;-76
2023/02/27 03:43:31;;;;;;;15.02;5.18;;;;;;;-0.22;82.80;99451.53;4934822;28;20426;-78
2023/02/27 03:46:13;;;;;;;24.40;7.65;;;;;;;-0.10;82.34;99458.97;4933998;29;20052;-76
2023/02/27 03:48:43;;;;;;;14.48;6.03;;;;;;;-0.20;82.94;99447.91;4934346;29;20502;-76
2023/02/27 03:51:16;;;;;;;13.13;6.70;;;;;;;-0.18;83.10;99450.50;4949188;29;20060;-77
2023/02/27 03:54:08;;;;;;;17.15;7.95;;;;;;;-0.05;83.18;99441.25;4930855;29;20114;-77
2023/02/27 03:56:41;;;;;;;12.65;6.40;;;;;;;-0.07;83.00;99443.97;4930975;29;20103;-77
2023/02/27 03:59:07;;;;;;;13.98;7.53;;;;;;;-0.01;82.58;99448.97;4915629;29;20132;-77
2023/02/27 04:01:35;;;;;;;13.70;6.28;;;;;;;-0.09;82.66;99432.63;4931168;29;20056;-76
2023/02/27 04:04:08;;;;;;;13.80;6.35;;;;;;;0.00;82.80;99447.22;4915365;29;20040;-75
2023/02/27 04:10:20;;;;;;;13.65;7.70;;;;;;;0.07;83.06;99445.22;4915314;29;20084;-76
2023/02/27 04:12:46;;;;;;;12.95;6.40;;;;;;;0.07;83.14;99422.41;4899310;29;20096;-75
2023/02/27 04:15:20;;;;;;;9.98;5.70;;;;;;;0.08;82.97;99432.06;4930772;29;20044;-77
2023/02/27 04:18:17;;;;;;;7.55;3.78;;;;;;;0.20;83.21;99436.00;4921453;29;20127;-77
2023/02/27 04:20:47;;;;;;;19.48;7.05;;;;;;;0.21;83.13;99433.31;4897791;29;20072;-75
2023/02/27 04:23:31;;;;;;;11.70;6.55;;;;;;;0.30;82.83;99431.25;4918048;29;20055;-77
2023/02/27 04:26:15;;;;;;;13.38;6.20;;;;;;;0.33;83.14;99426.72;4935163;29;20043;-76
2023/02/27 04:28:58;;;;;;;13.60;7.30;;;;;;;0.39;82.94;99416.00;4934437;29;20040;-77
2023/02/27 04:31:36;;;;;;;9.73;5.95;;;;;;;0.38;83.03;99416.06;4935268;29;20058;-79
2023/02/27 04:34:48;;;;;;;8.93;5.75;;;;;;;0.43;82.83;99417.59;4934074;29;20051;-78
2023/02/27 04:37:21;;;;;;;10.55;6.70;;;;;;;0.51;82.32;99422.56;4914177;29;20040;-79
2023/02/27 04:39:50;;;;;;;12.10;5.97;;;;;;;0.48;82.71;99414.78;4914381;29;20562;-76
2023/02/27 04:42:23;;;;;;;11.68;6.50;;;;;;;0.59;82.18;99404.72;4917826;29;20083;-83
2023/02/27 04:44:53;;;;;;;16.00;7.15;;;;;;;0.61;82.14;99408.16;4933871;29;20055;-75
2023/02/27 04:47:21;;;;;;;12.07;6.15;;;;;;;0.60;81.83;99414.34;4935316;29;20048;-78
2023/02/27 04:49:58;;;;;;;11.02;5.35;;;;;;;0.46;82.34;99406.13;4937343;29;20047;-77
2023/02/27 04:52:30;;;;;;;11.68;7.05;;;;;;;0.53;82.13;99410.22;4937328;29;20039;-77
2023/02/27 04:55:10;;;;;;;13.55;7.13;;;;;;;0.64;81.76;99426.47;4921107;29;20055;-76
2023/02/27 04:57:40;;;;;;;13.27;6.90;;;;;;;0.68;81.60;99407.00;4920321;29;20039;-78
2023/02/27 05:00:11;;;;;;;15.48;7.68;;;;;;;0.66;81.63;99393.03;4937272;29;20081;-77
2023/02/27 05:02:49;;;;;;;13.90;7.15;;;;;;;0.68;82.05;99393.84;4933646;29;20036;-77
2023/02/27 05:05:26;;;;;;;15.48;5.85;;;;;;;0.76;81.98;99393.56;4902281;29;20496;-78
2023/02/27 05:08:00;;;;;;;14.23;7.20;;;;;;;0.85;81.51;99387.06;4934303;29;20051;-78
2023/02/27 05:10:35;;;;;;;14.07;6.65;;;;;;;0.93;81.07;99369.19;4934272;29;20047;-77
2023/02/27 05:13:22;;;;;;;12.85;6.60;;;;;;;0.94;81.23;99381.41;4918121;29;20047;-78
2023/02/27 05:15:57;;;;;;;12.15;6.40;;;;;;;1.00;80.70;99391.72;4935933;29;20043;-78
2023/02/27 05:18:23;;;;;;;12.80;6.10;;;;;;;1.03;80.51;99365.28;4938757;29;20039;-77
2023/02/27 05:21:04;;;;;;;19.85;7.78;;;;;;;1.08;80.83;99370.34;4951768;28;20063;-77
2023/02/27 05:23:49;;;;;;;12.38;6.53;;;;;;;1.06;81.10;99349.34;4937072;29;20134;-77
2023/02/27 05:26:49;;;;;;;14.02;8.05;;;;;;;1.25;81.20;99343.34;4936872;29;20085;-76
2023/02/27 05:29:21;;;;;;;15.18;7.97;;;;;;;1.47;80.19;99344.13;4936746;29;20055;-80
2023/02/27 05:32:11;;;;;;;13.23;7.13;;;;;;;1.42;79.95;99310.06;4917523;29;20051;-75
2023/02/27 05:34:50;;;;;;;11.77;6.95;;;;;;;1.70;79.92;99322.91;4911561;29;20048;-76
2023/02/27 05:37:26;;;;;;;15.65;8.07;;;;;;;1.77;79.39;99314.72;4917981;29;20052;-77
2023/02/27 05:39:52;;;;;;;20.73;8.82;;;;;;;1.80;78.94;99311.94;4919245;29;20052;-77
2023/02/27 05:42:33;;;;;;;20.27;10.20;;;;;;;1.86;78.85;99303.78;4933518;29;20095;-76
2023/02/27 05:45:07;;;;;;;17.83;9.80;;;;;;;2.01;78.58;99295.16;4917786;29;20491;-76
2023/02/27 05:47:38;;;;;;;18.73;9.40;;;;;;;2.08;78.28;99299.22;4917784;29;20052;-76
2023/02/27 05:50:12;;;;;;;17.67;8.10;;;;;;;2.18;77.65;99281.19;4918673;29;20052;-76
2023/02/27 05:52:40;;;;;;;12.50;7.55;;;;;;;2.08;77.92;99308.94;4932873;29;20095;-77
2023/02/27 05:55:43;;;;;;;16.75;8.20;;;;;;;2.05;78.44;99299.38;4916802;29;20068;-75
2023/02/27 05:58:12;;;;;;;12.80;6.55;;;;;;;1.91;79.05;99288.59;4916756;29;20066;-77
2023/02/27 06:00:57;;;;;;;20.70;7.20;;;;;;;2.04;79.35;99281.84;4916363;29;20050;-77
2023/02/27 06:03:24;;;;;;;11.48;6.72;;;;;;;2.24;79.46;99272.16;4916851;29;20046;-77
2023/02/27 06:05:53;;;;;;;12.77;7.10;;;;;;;2.38;78.57;99277.63;4918069;29;20044;-78
2023/02/27 06:08:20;;;;;;;9.85;5.32;;;;;;;2.34;78.85;99283.97;4916818;29;20196;-76
2023/02/27 06:10:47;;;;;;;9.07;5.75;;;;;;;2.39;78.83;99277.53;4932764;29;20056;-77
2023/02/27 06:13:13;;;;;;;7.20;5.45;;;;;;;2.39;79.50;99276.69;4918344;29;20043;-76
2023/02/27 06:15:38;;;;;;;8.68;5.47;;;;;;;2.30;79.19;99278.00;4932866;29;20048;-77
2023/02/27 06:18:04;;;;;;;8.95;5.35;;;;;;;2.19;80.01;99261.81;4916793;29;20423;-78
2023/02/27 06:20:31;;;;;;;6.50;4.72;;;;;;;2.24;79.94;99285.34;4918105;29;20051;-77
2023/02/27 06:22:56;;;;;;;7.75;6.15;;;;;;;2.99;84.38;99282.53;4934344;29;20048;-76
2023/02/27 06:25:22;;;;;;;9.38;6.18;;;;;;;3.08;79.70;99279.44;4918198;29;20056;-83
2023/02/27 06:27:48;;;;;;;12.77;6.20;;;;;;;3.39;80.43;99275.25;4917323;29;20044;-78
2023/02/27 06:30:14;;;;;;;13.25;5.90;;;;;;;3.94;80.23;99282.88;4932772;28;20143;-79
2023/02/27 06:32:40;;;;;;;8.75;5.97;;;;;;;4.40;78.60;99269.81;4932528;29;20099;-77
2023/02/27 06:35:06;;;;;;;9.23;6.00;;;;;;;4.68;74.70;99268.25;4917740;29;20052;-81
2023/02/27 06:37:32;;;;;;;13.20;5.68;;;;;;;4.97;73.98;99256.81;4917969;29;20056;-82
2023/02/27 06:39:58;;;;;;;7.80;4.80;;;;;;;5.26;73.45;99233.03;4916847;29;20082;-79
2023/02/27 06:42:24;;;;;;;8.43;5.50;;;;;;;5.62;70.65;99247.66;4918558;29;20455;-80
2023/02/27 06:44:50;;;;;;;7.15;4.60;;;;;;;4.77;69.66;99249.16;4916878;29;20444;-77
2023/02/27 06:47:15;;;;;;;6.20;4.75;;;;;;;4.28;70.90;99233.41;4916253;29;20051;-77
2023/02/27 06:49:41;;;;;;;8.45;5.88;;;;;;;3.84;72.17;99234.94;4932845;29;20071;-77
2023/02/27 06:52:07;;;;;;;7.22;5.50;;;;;;;3.44;73.83;99240.66;4916304;29;20077;-76
2023/02/27 06:54:33;;;;;;;10.68;5.93;;;;;;;3.09;75.40;99241.53;4917556;29;20060;-76
2023/02/27 06:56:59;;;;;;;8.68;5.93;;;;;;;2.85;76.68;99240.13;4917559;29;20052;-77
2023/02/27 06:59:25;;;;;;;8.85;4.85;;;;;;;2.78;77.61;99236.09;4917003;29;20499;-77
2023/02/27 07:01:51;;;;;;;8.20;5.97;;;;;;;2.67;78.12;99245.41;4916146;29;20040;-77
2023/02/27 07:04:17;;;;;;;7.60;5.82;;;;;;;2.78;78.30;99236.09;4916479;29;20110;-80
2023/02/27 07:06:43;;;;;;;7.93;5.50;;;;;;;2.56;79.04;99242.44;4916076;29;20055;-78
2023/02/27 07:09:09;;;;;;;8.13;5.63;;;;;;;2.52;79.83;99226.81;4916091;29;20054;-78
2023/02/27 07:11:35;;;;;;;11.50;6.88;;;;;;;2.55;79.92;99239.88;4900173;29;20043;-78
2023/02/27 07:14:00;;;;;;;7.88;5.47;;;;;;;2.55;79.93;99224.03;4900060;29;20044;-76
2023/02/27 07:16:26;;;;;;;15.98;5.68;;;;;;;2.66;80.15;99243.69;4915689;29;20088;-78
2023/02/27 07:18:52;;;;;;;8.82;5.90;;;;;;;2.62;80.36;99218.38;4931596;29;20044;-78
2023/02/27 07:21:18;;;;;;;7.28;5.18;;;;;;;2.62;80.30;99221.00;4917112;29;20060;-77
2023/02/27 07:23:44;;;;;;;7.88;5.18;;;;;;;2.49;80.21;99209.38;4900014;29;20059;-79
2023/02/27 07:26:10;;;;;;;9.07;6.10;;;;;;;2.74;80.85;99208.13;4931360;29;20055;-79
2023/02/27 07:28:35;;;;;;;8.90;5.50;;;;;;;2.66;80.56;99201.47;4915426;29;20048;-77
2023/02/27 07:31:01;;;;;;;10.32;5.65;;;;;;;2.72;80.51;99220.56;4915315;29;20044;-77
2023/02/27 07:33:27;;;;;;;10.18;6.18;;;;;;;2.59;80.59;99200.03;4915549;29;20044;-78
2023/02/27 07:35:53;;;;;;;8.88;5.72;;;;;;;2.63;80.56;99212.19;4915759;29;20055;-76
2023/02/27 07:38:21;;;;;;;8.63;6.43;;;;;;;2.50;81.00;99203.16;4931313;29;20044;-78
2023/02/27 07:40:47;;;;;;;6.82;5.25;;;;;;;2.54;81.41;99202.06;4917038;29;20051;-79
2023/02/27 07:43:13;;;;;;;13.10;6.22;;;;;;;2.43;81.58;99199.09;4916857;29;20138;-79
2023/02/27 07:45:39;;;;;;;9.25;6.05;;;;;;;2.50;82.15;99211.06;4916786;29;20127;-78
2023/02/27 07:48:05;;;;;;;8.23;6.15;;;;;;;2.43;82.75;99204.38;4915563;29;20139;-78
2023/02/27 07:50:31;;;;;;;9.35;6.10;;;;;;;2.51;82.11;99196.94;4899783;29;20498;-78
2023/02/27 07:52:57;;;;;;;8.80;5.53;;;;;;;2.50;82.54;99199.66;4915277;29;20135;-77
2023/02/27 07:55:23;;;;;;;8.52;5.80;;;;;;;2.51;82.56;99186.38;4915183;29;20507;-77
2023/02/27 07:57:48;;;;;;;11.05;6.35;;;;;;;2.48;82.75;99201.50;4915913;29;20141;-75
2023/02/27 08:00:14;;;;;;;10.68;5.30;;;;;;;2.53;82.67;99195.09;4915463;29;20107;-80
2023/02/27 08:02:40;;;;;;;7.03;5.18;;;;;;;2.54;82.00;99212.63;4917906;29;20502;-80
2023/02/27 08:05:07;;;;;;;7.97;5.55;;;;;;;2.50;82.40;99199.66;4935862;29;20071;-86
2023/02/27 08:07:33;;;;;;;9.68;5.45;;;;;;;2.53;82.12;99215.34;4918420;29;20051;-77
2023/02/27 08:09:58;;;;;;;9.32;5.53;;;;;;;2.52;81.82;99198.66;4950169;29;20463;-80
2023/02/27 08:12:24;;;;;;;11.75;6.38;;;;;;;2.50;82.09;99187.31;4950185;28;20043;-78
2023/02/27 08:14:50;;;;;;;5.70;5.03;;;;;;;2.59;81.66;99178.94;4950653;29;20061;-78
2023/02/27 08:17:16;;;;;;;13.95;5.80;;;;;;;2.59;81.27;99173.66;4919278;29;20055;-78
2023/02/27 08:19:42;;;;;;;8.55;5.35;;;;;;;2.61;81.42;99160.41;4935584;28;20114;-80
2023/02/27 08:22:08;;;;;;;7.32;5.50;;;;;;;2.66;81.16;99158.38;4953676;28;20143;-79
2023/02/27 08:24:34;;;;;;;9.20;4.75;;;;;;;2.72;80.51;99154.59;4941030;29;20043;-79
2023/02/27 08:27:00;;;;;;;8.00;5.32;;;;;;;2.71;80.67;99171.34;4955515;29;20138;-77
2023/02/27 08:29:26;;;;;;;13.38;5.95;;;;;;;2.68;80.84;99157.38;4954534;29;20101;-79
2023/02/27 08:31:52;;;;;;;10.52;4.97;;;;;;;2.55;81.12;99156.28;4940005;29;20407;-80
2023/02/27 08:34:18;;;;;;;10.05;5.50;;;;;;;2.58;81.62;99165.84;4954746;29;20040;-79
2023/02/27 08:36:44;;;;;;;14.35;5.85;;;;;;;2.48;81.36;99172.50;4940613;29;20131;-78
2023/02/27 08:39:10;;;;;;;8.27;6.13;;;;;;;2.48;81.98;99170.69;4939711;29;20534;-79
2023/02/27 08:41:36;;;;;;;9.63;5.30;;;;;;;2.43;82.51;99162.19;4938187;29;20505;-80
2023/02/27 08:44:03;;;;;;;13.48;5.90;;;;;;;2.44;82.48;99174.44;4939370;29;20047;-78
2023/02/27 08:46:28;;;;;;;7.18;4.95;;;;;;;2.48;82.64;99162.78;4952904;29;20063;-78
2023/02/27 08:48:54;;;;;;;10.40;5.32;;;;;;;2.47;82.23;99153.19;4938339;29;20083;-79
2023/02/27 08:51:20;;;;;;;7.35;5.53;;;;;;;2.45;82.37;99170.88;4937814;28;20139;-80
2023/02/27 08:53:46;;;;;;;10.27;5.30;;;;;;;2.47;82.84;99179.56;4937072;29;20051;-79
2023/02/27 08:56:12;;;;;;;9.38;5.47;;;;;;;2.50;82.91;99183.84;4937436;29;20106;-80
2023/02/27 08:58:38;;;;;;;9.23;6.25;;;;;;;2.53;82.66;99188.97;4937721;29;20106;-79
2023/02/27 09:01:04;;;;;;;7.00;5.00;;;;;;;2.47;83.01;99203.31;4954205;29;20067;-80
2023/02/27 09:03:30;;;;;;;11.30;6.05;;;;;;;2.39;83.75;99198.41;4938009;29;20043;-79
2023/02/27 09:05:56;;;;;;;8.52;6.05;;;;;;;2.48;83.51;99223.47;4937668;29;20138;-80
2023/02/27 09:08:22;;;;;;;10.25;6.30;;;;;;;2.46;83.72;99214.78;4938438;29;20043;-79
2023/02/27 09:10:48;;;;;;;11.40;6.65;;;;;;;2.52;83.56;99200.44;4953138;29;20132;-80
2023/02/27 09:13:14;;;;;;;12.15;7.57;;;;;;;2.51;83.74;99212.78;4920991;29;20131;-78
2023/02/27 09:15:40;;;;;;;7.50;6.10;;;;;;;2.52;83.37;99211.88;4937650;29;20048;-78
2023/02/27 09:18:06;;;;;;;10.68;6.40;;;;;;;2.53;83.31;99216.19;4937118;29;20044;-79
2023/02/27 09:20:34;;;;;;;9.13;6.07;;;;;;;2.55;83.76;99208.19;4934826;29;20042;-80
2023/02/27 09:23:02;;;;;;;10.18;6.93;;;;;;;2.54;83.36;99202.06;4933827;29;20131;-78
2023/02/27 09:25:28;;;;;;;8.38;6.47;;;;;;;2.58;83.31;99198.34;4917094;29;20044;-80
2023/02/27 09:27:54;;;;;;;7.35;5.90;;;;;;;2.54;83.72;99196.78;4933524;29;20052;-80
2023/02/27 09:30:21;;;;;;;10.35;5.90;;;;;;;2.66;83.16;99190.06;4927967;29;20047;-80
2023/02/27 09:32:47;;;;;;;14.07;7.07;;;;;;;2.71;83.47;99198.59;4937380;29;20051;-80
2023/02/27 09:35:16;;;;;;;12.43;6.35;;;;;;;2.67;83.42;99197.03;4950044;28;20134;-80
2023/02/27 09:37:43;;;;;;;10.47;5.23;;;;;;;2.65;83.44;99205.03;4935200;29;20043;-77
2023/02/27 09:40:31;;;;;;;9.77;5.53;;;;;;;2.56;83.93;99216.06;4935050;29;20419;-80
2023/02/27 09:43:02;;;;;;;11.50;5.47;;;;;;;2.56;84.51;99205.50;4935446;29;20083;-82
2023/02/27 09:45:30;;;;;;;15.63;5.78;;;;;;;2.52;84.69;99198.66;4934707;29;20423;-81
2023/02/27 09:48:05;;;;;;;10.07;5.80;;;;;;;2.56;84.65;99204.66;4934950;29;20113;-80
2023/02/27 09:50:35;;;;;;;9.50;6.50;;;;;;;2.53;84.67;99199.53;4933929;29;20098;-83
2023/02/27 09:53:03;;;;;;;7.53;6.10;;;;;;;2.62;84.25;99197.25;4934616;29;20051;-81
2023/02/27 09:55:33;;;;;;;10.75;5.85;;;;;;;2.59;84.37;99199.19;4935013;29;20067;-82
2023/02/27 09:58:24;;;;;;;9.90;6.72;;;;;;;2.63;84.11;99209.56;4930153;29;20047;-82
2023/02/27 10:01:22;;;;;;;14.02;6.65;;;;;;;2.63;83.90;99201.63;4934494;29;20051;-82
2023/02/27 10:04:17;;;;;;;13.43;6.40;;;;;;;2.71;84.18;99209.16;4921276;29;20059;-80
2023/02/27 10:06:51;;;;;;;11.75;6.00;;;;;;;2.80;83.84;99210.47;4950296;29;20771;-79
2023/02/27 10:09:33;;;;;;;7.55;5.38;;;;;;;2.78;84.02;99214.97;4932811;29;20098;-80
2023/02/27 10:12:04;;;;;;;8.75;5.63;;;;;;;2.79;83.79;99221.97;4949944;29;20047;-80
2023/02/27 10:14:38;;;;;;;8.30;5.45;;;;;;;2.86;83.34;99218.09;4950774;29;20051;-80
2023/02/27 10:17:14;;;;;;;8.48;5.60;;;;;;;2.77;83.19;99213.28;4931286;29;20589;-81
2023/02/27 10:19:45;;;;;;;8.20;5.88;;;;;;;2.70;83.75;99223.28;4932225;29;20044;-81
2023/02/27 10:22:17;;;;;;;9.55;5.63;;;;;;;2.73;84.01;99214.34;4917996;29;20043;-81
2023/02/27 10:24:59;;;;;;;6.70;5.15;;;;;;;2.64;84.36;99220.97;4931223;29;20499;-80
2023/02/27 10:27:25;;;;;;;8.05;5.00;;;;;;;2.81;83.93;99225.38;4929756;29;20046;-81
2023/02/27 10:29:57;;;;;;;6.82;4.97;;;;;;;2.86;83.94;99215.47;4935260;29;20051;-81
2023/02/27 10:32:25;;;;;;;9.18;5.40;;;;;;;2.92;83.57;99225.69;4933297;29;20048;-80
2023/02/27 10:34:59;;;;;;;6.25;5.13;;;;;;;2.88;83.31;99211.78;4933370;29;20538;-82
2023/02/27 10:37:26;;;;;;;5.57;4.53;;;;;;;2.91;83.24;99216.06;4932150;29;20040;-80
2023/02/27 10:39:56;;;;;;;7.47;4.68;;;;;;;2.94;83.31;99221.19;4934204;29;20043;-80
2023/02/27 10:42:27;;;;;;;5.13;4.50;;;;;;;3.00;83.15;99226.16;4933915;29;20051;-81
2023/02/27 10:44:53;;;;;;;6.00;4.55;;;;;;;2.92;82.91;99233.63;4950527;29;20051;-81
2023/02/27 10:47:23;;;;;;;5.63;4.38;;;;;;;2.86;83.09;99244.50;4933674;29;20098;-80
2023/02/27 10:49:50;;;;;;;7.90;4.28;;;;;;;2.85;83.22;99242.78;4949996;29;20051;-83
2023/02/27 10:52:16;;;;;;;5.88;4.25;;;;;;;2.92;83.44;99244.16;4935140;29;20035;-79
2023/02/27 10:54:43;;;;;;;6.15;4.32;;;;;;;2.93;82.77;99237.94;4936458;29;20063;-80
2023/02/27 10:57:29;;;;;;;5.57;4.72;;;;;;;3.13;85.27;99243.09;4935901;29;20058;-83
2023/02/27 10:59:59;;;;;;;5.18;4.63;;;;;;;3.24;83.24;99228.50;4934884;29;20047;-81
2023/02/27 11:02:38;;;;;;;6.13;4.50;;;;;;;3.19;82.49;99252.47;4934690;29;20078;-77
2023/02/27 11:05:17;;;;;;;7.18;4.75;;;;;;;3.09;82.26;99240.69;4914847;29;20094;-81
2023/02/27 11:07:43;;;;;;;11.35;4.32;;;;;;;3.04;82.41;99243.53;4915294;29;20048;-79
2023/02/27 11:10:09;;;;;;;7.85;4.70;;;;;;;3.12;82.26;99238.75;4899322;29;20056;-80
2023/02/27 11:12:35;;;;;;;6.05;4.78;;;;;;;3.16;81.94;99235.03;4915438;29;20138;-81
2023/02/27 11:15:24;;;;;;;6.38;4.63;;;;;;;3.24;81.97;99245.19;4915546;29;20048;-79
2023/02/27 11:17:51;;;;;;;4.80;3.97;;;;;;;3.22;81.36;99227.69;4931948;29;20048;-83
2023/02/27 11:20:32;;;;;;;9.35;4.78;;;;;;;3.14;81.53;99226.31;4920378;29;20099;-78
2023/02/27 11:23:05;;;;;;;4.80;4.30;;;;;;;3.23;81.65;99218.84;4934971;29;20048;-81
2023/02/27 11:25:32;;;;;;;7.95;4.70;;;;;;;3.30;81.75;99217.59;4916479;29;20047;-81
2023/02/27 11:28:34;;;;;;;8.48;4.65;;;;;;;3.29;81.32;99206.16;4934842;29;20035;-78
2023/02/27 11:31:15;;;;;;;6.15;4.63;;;;;;;3.16;81.00;99211.25;4933367;29;20067;-78
2023/02/27 11:33:53;;;;;;;5.22;4.72;;;;;;;3.26;81.09;99205.47;4918352;29;20047;-78
2023/02/27 11:36:22;;;;;;;6.85;4.47;;;;;;;3.08;81.31;99192.28;4920406;29;20138;-80
2023/02/27 11:38:55;;;;;;;7.38;5.00;;;;;;;2.96;82.08;99192.06;4951071;29;20384;-80
2023/02/27 11:41:33;;;;;;;5.10;3.75;;;;;;;2.99;82.07;99213.03;4950129;29;20044;-77
2023/02/27 11:44:02;;;;;;;5.85;4.35;;;;;;;3.01;82.41;99212.03;4934020;29;20055;-81
2023/02/27 11:46:28;;;;;;;6.15;4.63;;;;;;;2.99;82.09;99198.03;4918348;29;20475;-80
2023/02/27 11:49:33;;;;;;;6.70;4.22;;;;;;;3.14;81.94;99202.53;4933696;29;20074;-81
2023/02/27 11:52:16;;;;;;;4.18;3.55;;;;;;;3.11;81.77;99213.25;4917820;29;20095;-79
2023/02/27 11:54:52;;;;;;;6.57;3.63;;;;;;;3.20;81.65;99209.31;4918348;29;20079;-79
2023/02/27 11:57:39;;;;;;;4.47;3.78;;;;;;;3.25;81.44;99227.53;4933512;29;20486;-77
2023/02/27 12:00:13;;;;;;;3.35;3.00;;;;;;;3.20;81.06;99226.91;4919990;29;20058;-78